Time,TemperatureF,DewpointF,PressureIn,WindDirection,WindDirectionDegrees,WindSpeedMPH,WindSpeedGustMPH,Humidity,HourlyPrecipIn,Conditions,Clouds,dailyrainin,SoftwareType,DateUTC
2013-06-22 00:00:00,69.3,67.8,30.17,West,281,0.0,0.0,95,0.00,CLR,,0.00,WeatherDisplay:10.37,2013-06-22 04:00:00,
2013-06-22 00:10:00,69.2,67.7,30.17,West,281,0.0,0.0,95,0.00,CLR,,0.00,WeatherDisplay:10.37,2013-06-22 04:10:00,
2013-06-22 00:20:00,69.0,67.5,30.17,West,281,0.0,0.0,95,0.00,CLR,,0.00,WeatherDisplay:10.37,2013-06-22 04:20:00,
2013-06-22 00:30:00,68.8,67.3,30.17,West,281,0.0,0.0,95,0.00,CLR,,0.00,WeatherDisplay:10.37,2013-06-22 04:30:00,
2013-06-22 00:40:00,68.7,67.2,30.17,West,281,0.0,0.0,95,0.00,CLR,,0.00,WeatherDisplay:10.37,2013-06-22 04:40:00,
2013-06-22 00:50:00,68.5,67.0,30.17,West,281,0.0,0.0,95,0.00,CLR,,0.00,WeatherDisplay:10.37,2013-06-22 04:50:00,
2013-06-22 01:00:00,68.3,67.1,30.17,West,281,0.0,0.0,96,0.00,CLR,,0.00,WeatherDisplay:10.37,2013-06-22 05:00:00,
2013-06-22 01:10:00,68.3,67.1,30.17,West,281,0.0,0.0,96,0.00,CLR,,0.00,WeatherDisplay:10.37,2013-06-22 05:10:00,
2013-06-22 01:20:00,68.3,67.1,30.17,West,281,0.0,0.0,96,0.00,CLR,,0.00,WeatherDisplay:10.37,2013-06-22 05:20:00,
2013-06-22 01:30:00,68.1,66.9,30.16,West,281,0.0,0.0,96,0.00,CLR,,0.00,WeatherDisplay:10.37,2013-06-22 05:30:00,
2013-06-22 01:40:00,68.0,66.8,30.16,West,281,0.0,0.0,96,0.00,SCT,,0.00,WeatherDisplay:10.37,2013-06-22 05:40:00,
2013-06-22 01:50:00,67.9,66.7,30.16,West,281,0.0,0.0,96,0.00,SCT,,0.00,WeatherDisplay:10.37,2013-06-22 05:50:00,
2013-06-22 02:00:00,68.0,66.8,30.15,West,281,0.0,0.0,96,0.00,SCT,,0.00,WeatherDisplay:10.37,2013-06-22 06:00:00,
2013-06-22 02:10:00,68.1,66.9,30.15,West,281,0.0,0.0,96,0.00,CLR,,0.00,WeatherDisplay:10.37,2013-06-22 06:10:00,
2013-06-22 02:20:00,68.1,66.9,30.14,West,281,0.0,0.0,96,0.00,CLR,,0.00,WeatherDisplay:10.37,2013-06-22 06:20:00,
2013-06-22 02:30:00,68.0,66.8,30.14,West,281,0.0,0.0,96,0.00,CLR,,0.00,WeatherDisplay:10.37,2013-06-22 06:30:00,
2013-06-22 02:40:00,67.9,66.7,30.14,West,281,0.0,1.0,96,0.00,SCT,,0.00,WeatherDisplay:10.37,2013-06-22 06:40:00,
2013-06-22 02:50:00,67.7,66.5,30.14,West,281,0.0,0.0,96,0.00,SCT,,0.00,WeatherDisplay:10.37,2013-06-22 06:50:00,
2013-06-22 03:00:00,67.6,66.4,30.14,West,281,0.0,0.0,96,0.00,SCT,,0.00,WeatherDisplay:10.37,2013-06-22 07:00:00,
2013-06-22 03:10:00,67.5,66.3,30.14,West,281,0.0,0.0,96,0.00,SCT,,0.00,WeatherDisplay:10.37,2013-06-22 07:10:00,
2013-06-22 03:20:00,67.4,66.2,30.14,West,281,0.0,0.0,96,0.00,SCT,,0.00,WeatherDisplay:10.37,2013-06-22 07:20:00,
2013-06-22 03:30:00,67.2,66.0,30.14,West,281,0.0,0.0,96,0.00,SCT,,0.00,WeatherDisplay:10.37,2013-06-22 07:30:00,
2013-06-22 03:40:00,67.0,65.8,30.14,West,281,0.0,0.0,96,0.00,CLR,,0.00,WeatherDisplay:10.37,2013-06-22 07:40:00,
2013-06-22 03:50:00,66.7,65.5,30.14,West,281,0.0,0.0,96,0.00,CLR,,0.00,WeatherDisplay:10.37,2013-06-22 07:50:00,
2013-06-22 04:00:00,66.5,65.3,30.14,West,281,0.0,0.0,96,0.00,CLR,,0.00,WeatherDisplay:10.37,2013-06-22 08:00:00,
2013-06-22 04:10:00,66.4,65.5,30.14,West,281,0.0,0.0,97,0.00,CLR,,0.00,WeatherDisplay:10.37,2013-06-22 08:10:00,
2013-06-22 04:20:00,66.3,65.1,30.14,West,281,0.0,0.0,96,0.00,CLR,,0.00,WeatherDisplay:10.37,2013-06-22 08:20:00,
2013-06-22 04:30:00,66.1,64.9,30.14,West,281,0.0,0.0,96,0.00,CLR,,0.00,WeatherDisplay:10.37,2013-06-22 08:30:00,
2013-06-22 04:40:00,66.0,65.1,30.14,West,281,0.0,0.0,97,0.00,CLR,,0.00,WeatherDisplay:10.37,2013-06-22 08:40:00,
2013-06-22 04:50:00,65.9,65.0,30.14,West,281,0.0,0.0,97,0.00,CLR,,0.00,WeatherDisplay:10.37,2013-06-22 08:50:00,
2013-06-22 05:00:00,65.7,64.5,30.14,West,281,0.0,0.0,96,0.00,CLR,,0.00,WeatherDisplay:10.37,2013-06-22 09:00:00,
2013-06-22 05:10:00,65.5,64.3,30.15,West,281,0.0,0.0,96,0.00,CLR,,0.00,WeatherDisplay:10.37,2013-06-22 09:10:00,
2013-06-22 05:20:00,65.3,64.4,30.14,West,281,0.0,0.0,97,0.00,CLR,,0.00,WeatherDisplay:10.37,2013-06-22 09:20:00,
2013-06-22 05:30:00,65.0,64.2,30.15,West,281,0.0,0.0,97,0.00,CLR,,0.00,WeatherDisplay:10.37,2013-06-22 09:30:00,
2013-06-22 05:40:00,64.9,63.7,30.15,West,281,0.0,0.0,96,0.00,CLR,,0.00,WeatherDisplay:10.37,2013-06-22 09:40:00,
2013-06-22 05:50:00,64.7,63.8,30.15,West,281,0.0,0.0,97,0.00,CLR,,0.00,WeatherDisplay:10.37,2013-06-22 09:50:00,
2013-06-22 06:00:00,64.6,63.7,30.15,West,281,0.0,0.0,97,0.00,CLR,,0.00,WeatherDisplay:10.37,2013-06-22 10:00:00,
2013-06-22 06:10:00,64.5,63.6,30.16,West,281,0.0,0.0,97,0.00,CLR,,0.00,WeatherDisplay:10.37,2013-06-22 10:10:00,
2013-06-22 06:20:00,64.5,63.6,30.16,West,281,0.0,0.0,97,0.00,CLR,,0.00,WeatherDisplay:10.37,2013-06-22 10:20:00,
2013-06-22 06:30:00,64.3,63.4,30.16,West,281,0.0,0.0,97,0.00,CLR,,0.00,WeatherDisplay:10.37,2013-06-22 10:30:00,
2013-06-22 06:40:00,64.2,63.3,30.17,West,281,0.0,0.0,97,0.00,CLR,,0.00,WeatherDisplay:10.37,2013-06-22 10:40:00,
2013-06-22 06:50:00,64.1,63.2,30.16,WNW,301,0.0,1.0,97,0.00,CLR,,0.00,WeatherDisplay:10.37,2013-06-22 10:50:00,
2013-06-22 07:00:00,64.1,63.2,30.16,WNW,290,0.0,0.0,97,0.00,CLR,,0.00,WeatherDisplay:10.37,2013-06-22 11:00:00,
2013-06-22 07:10:00,64.1,63.2,30.16,WNW,287,0.0,1.0,97,0.00,CLR,,0.00,WeatherDisplay:10.37,2013-06-22 11:10:00,
2013-06-22 07:20:00,64.3,63.4,30.17,WSW,243,0.0,1.0,97,0.00,CLR,,0.00,WeatherDisplay:10.37,2013-06-22 11:20:00,
2013-06-22 07:30:00,65.1,64.5,30.17,WSW,248,0.0,0.0,98,0.00,CLR,,0.00,WeatherDisplay:10.37,2013-06-22 11:30:00,
2013-06-22 07:40:00,65.6,65.0,30.18,SW,236,0.0,1.0,98,0.00,CLR,,0.00,WeatherDisplay:10.37,2013-06-22 11:40:00,
2013-06-22 07:50:00,66.2,65.6,30.18,SW,220,0.0,1.0,98,0.00,CLR,,0.00,WeatherDisplay:10.37,2013-06-22 11:50:00,
2013-06-22 08:00:00,67.1,66.5,30.19,SSE,158,0.0,0.0,98,0.00,CLR,,0.00,WeatherDisplay:10.37,2013-06-22 12:00:00,
2013-06-22 08:10:00,68.0,67.1,30.19,SE,129,0.0,1.0,97,0.00,CLR,,0.00,WeatherDisplay:10.37,2013-06-22 12:10:00,
2013-06-22 08:20:00,69.0,67.5,30.19,NNE,29,0.0,1.0,95,0.00,CLR,,0.00,WeatherDisplay:10.37,2013-06-22 12:20:00,
2013-06-22 08:30:00,70.2,67.2,30.19,NNW,342,0.0,1.0,90,0.00,CLR,,0.00,WeatherDisplay:10.37,2013-06-22 12:30:00,
2013-06-22 08:40:00,71.1,67.1,30.20,NNE,24,0.0,1.0,87,0.00,CLR,,0.00,WeatherDisplay:10.37,2013-06-22 12:40:00,
2013-06-22 08:50:00,72.1,66.3,30.20,East,96,0.0,2.0,82,0.00,CLR,,0.00,WeatherDisplay:10.37,2013-06-22 12:50:00,
2013-06-22 09:00:00,73.3,67.1,30.21,ENE,69,0.0,3.0,81,0.00,CLR,,0.00,WeatherDisplay:10.37,2013-06-22 13:00:00,
2013-06-22 09:10:00,74.3,67.4,30.21,East,92,0.0,1.0,79,0.00,CLR,,0.00,WeatherDisplay:10.37,2013-06-22 13:10:00,
2013-06-22 09:20:00,75.1,67.4,30.21,ESE,102,0.0,2.0,77,0.00,CLR,,0.00,WeatherDisplay:10.37,2013-06-22 13:20:00,
2013-06-22 09:30:00,75.5,66.7,30.21,SSE,151,0.0,2.0,74,0.00,CLR,,0.00,WeatherDisplay:10.37,2013-06-22 13:30:00,
2013-06-22 09:40:00,76.1,66.4,30.21,SE,141,0.0,6.0,72,0.00,CLR,,0.00,WeatherDisplay:10.37,2013-06-22 13:40:00,
2013-06-22 09:50:00,76.4,66.3,30.21,ESE,120,1.0,6.0,71,0.00,CLR,,0.00,WeatherDisplay:10.37,2013-06-22 13:50:00,
2013-06-22 10:00:00,77.1,66.1,30.21,SE,139,2.0,5.0,69,0.00,CLR,,0.00,WeatherDisplay:10.37,2013-06-22 14:00:00,
2013-06-22 10:10:00,77.7,67.1,30.21,SSE,163,2.0,6.0,70,0.00,CLR,,0.00,WeatherDisplay:10.37,2013-06-22 14:10:00,
2013-06-22 10:20:00,77.8,66.0,30.21,SSE,164,1.0,5.0,67,0.00,CLR,,0.00,WeatherDisplay:10.37,2013-06-22 14:20:00,
2013-06-22 10:30:00,77.8,65.1,30.21,SSE,167,6.0,12.0,65,0.00,CLR,,0.00,WeatherDisplay:10.37,2013-06-22 14:30:00,
2013-06-22 10:40:00,78.1,65.4,30.20,South,178,3.0,8.0,65,0.00,CLR,,0.00,WeatherDisplay:10.37,2013-06-22 14:40:00,
2013-06-22 10:50:00,78.2,65.0,30.20,SSE,168,2.0,10.0,64,0.00,CLR,,0.00,WeatherDisplay:10.37,2013-06-22 14:50:00,
2013-06-22 11:00:00,78.7,65.5,30.21,SE,126,5.0,10.0,64,0.00,CLR,,0.00,WeatherDisplay:10.37,2013-06-22 15:00:00,
2013-06-22 11:10:00,78.9,65.7,30.20,ESE,105,1.0,12.0,64,0.00,CLR,,0.00,WeatherDisplay:10.37,2013-06-22 15:10:00,
2013-06-22 11:20:00,79.5,66.3,30.20,ESE,106,1.0,8.0,64,0.00,CLR,,0.00,WeatherDisplay:10.37,2013-06-22 15:20:00,
2013-06-22 11:30:00,80.4,66.2,30.21,SSW,200,2.0,7.0,62,0.00,CLR,,0.00,WeatherDisplay:10.37,2013-06-22 15:30:00,
2013-06-22 11:40:00,80.5,64.9,30.21,South,176,2.0,12.0,59,0.00,CLR,,0.00,WeatherDisplay:10.37,2013-06-22 15:40:00,
2013-06-22 11:50:00,80.9,63.7,30.21,SSE,159,3.0,9.0,56,0.00,CLR,,0.00,WeatherDisplay:10.37,2013-06-22 15:50:00,
2013-06-22 12:00:00,80.8,63.7,30.21,SSW,200,7.0,10.0,56,0.00,CLR,,0.00,WeatherDisplay:10.37,2013-06-22 16:00:00,
2013-06-22 12:10:00,80.6,62.9,30.21,WSW,241,1.0,10.0,55,0.00,SCT,,0.00,WeatherDisplay:10.37,2013-06-22 16:10:00,
2013-06-22 12:20:00,81.1,63.9,30.20,SE,139,1.0,7.0,56,0.00,SCT,,0.00,WeatherDisplay:10.37,2013-06-22 16:20:00,
2013-06-22 12:30:00,81.4,64.2,30.20,ESE,106,5.0,6.0,56,0.00,SCT,,0.00,WeatherDisplay:10.37,2013-06-22 16:30:00,
2013-06-22 12:40:00,81.9,64.2,30.20,SSW,199,5.0,8.0,55,0.00,SCT,,0.00,WeatherDisplay:10.37,2013-06-22 16:40:00,
2013-06-22 12:50:00,82.2,63.4,30.20,SW,219,0.0,8.0,53,0.00,SCT,,0.00,WeatherDisplay:10.37,2013-06-22 16:50:00,
2013-06-22 13:00:00,82.5,64.7,30.20,SE,142,1.0,4.0,55,0.00,SCT,,0.00,WeatherDisplay:10.37,2013-06-22 17:00:00,
2013-06-22 13:10:00,82.5,64.1,30.20,SE,144,3.0,6.0,54,0.00,BKN,,0.00,WeatherDisplay:10.37,2013-06-22 17:10:00,
2013-06-22 13:20:00,83.0,64.1,30.19,East,79,0.0,9.0,53,0.00,BKN,,0.00,WeatherDisplay:10.37,2013-06-22 17:20:00,
2013-06-22 13:30:00,83.8,64.8,30.19,NE,52,0.0,5.0,53,0.00,BKN,,0.00,WeatherDisplay:10.37,2013-06-22 17:30:00,
2013-06-22 13:40:00,84.5,66.1,30.19,ENE,61,0.0,3.0,54,0.00,SCT,,0.00,WeatherDisplay:10.37,2013-06-22 17:40:00,
2013-06-22 13:50:00,85.2,65.6,30.19,ENE,63,0.0,4.0,52,0.00,CLR,,0.00,WeatherDisplay:10.37,2013-06-22 17:50:00,
2013-06-22 14:00:00,83.9,64.4,30.19,WNW,290,2.0,6.0,52,0.00,CLR,,0.00,WeatherDisplay:10.37,2013-06-22 18:00:00,
2013-06-22 14:10:00,83.7,64.2,30.18,South,188,3.0,5.0,52,0.00,CLR,,0.00,WeatherDisplay:10.37,2013-06-22 18:10:00,
2013-06-22 14:20:00,84.5,65.0,30.17,East,97,1.0,5.0,52,0.00,CLR,,0.00,WeatherDisplay:10.37,2013-06-22 18:20:00,
2013-06-22 14:30:00,84.8,64.1,30.16,NE,53,2.0,4.0,50,0.00,CLR,,0.00,WeatherDisplay:10.37,2013-06-22 18:30:00,
2013-06-22 14:40:00,84.4,63.2,30.16,NE,50,1.0,4.0,49,0.00,CLR,,0.00,WeatherDisplay:10.37,2013-06-22 18:40:00,
2013-06-22 14:50:00,84.3,63.1,30.16,West,277,3.0,6.0,49,0.00,CLR,,0.00,WeatherDisplay:10.37,2013-06-22 18:50:00,
2013-06-22 15:00:00,83.7,64.2,30.15,SW,235,0.0,6.0,52,0.00,CLR,,0.00,WeatherDisplay:10.37,2013-06-22 19:00:00,
2013-06-22 15:10:00,84.5,66.0,30.14,SE,125,1.0,5.0,54,0.00,CLR,,0.00,WeatherDisplay:10.37,2013-06-22 19:10:00,
2013-06-22 15:20:00,85.1,66.0,30.14,NE,51,2.0,6.0,53,0.00,CLR,,0.00,WeatherDisplay:10.37,2013-06-22 19:20:00,
2013-06-22 15:30:00,84.8,65.8,30.14,NE,51,1.0,5.0,53,0.00,CLR,,0.00,WeatherDisplay:10.37,2013-06-22 19:30:00,
2013-06-22 15:40:00,85.2,64.5,30.13,ENE,57,2.0,4.0,50,0.00,CLR,,0.00,WeatherDisplay:10.37,2013-06-22 19:40:00,
2013-06-22 15:50:00,85.4,64.1,30.13,SE,133,2.0,6.0,49,0.00,SCT,,0.00,WeatherDisplay:10.37,2013-06-22 19:50:00,
2013-06-22 16:00:00,85.5,64.7,30.12,SSE,163,1.0,5.0,50,0.00,SCT,,0.00,WeatherDisplay:10.37,2013-06-22 20:00:00,
2013-06-22 16:10:00,86.1,65.3,30.12,SSW,202,0.0,4.0,50,0.00,SCT,,0.00,WeatherDisplay:10.37,2013-06-22 20:10:00,
2013-06-22 16:20:00,86.9,66.6,30.12,ENE,77,2.0,5.0,51,0.00,SCT,,0.00,WeatherDisplay:10.37,2013-06-22 20:20:00,
2013-06-22 16:30:00,85.3,64.5,30.12,East,83,2.0,5.0,50,0.00,SCT,,0.00,WeatherDisplay:10.37,2013-06-22 20:30:00,
2013-06-22 16:40:00,84.8,63.5,30.11,East,100,0.0,6.0,49,0.00,SCT,,0.00,WeatherDisplay:10.37,2013-06-22 20:40:00,
2013-06-22 16:50:00,85.5,64.2,30.11,SSW,194,2.0,5.0,49,0.00,SCT,,0.00,WeatherDisplay:10.37,2013-06-22 20:50:00,
2013-06-22 17:00:00,85.6,64.2,30.10,West,264,1.0,5.0,49,0.00,SCT,,0.00,WeatherDisplay:10.37,2013-06-22 21:00:00,
2013-06-22 17:10:00,86.1,64.7,30.10,West,268,0.0,4.0,49,0.00,CLR,,0.00,WeatherDisplay:10.37,2013-06-22 21:10:00,
2013-06-22 17:20:00,87.0,64.9,30.10,West,268,0.0,2.0,48,0.00,CLR,,0.00,WeatherDisplay:10.37,2013-06-22 21:20:00,
2013-06-22 17:30:00,86.8,65.9,30.10,South,188,0.0,3.0,50,0.00,CLR,,0.00,WeatherDisplay:10.37,2013-06-22 21:30:00,
2013-06-22 17:40:00,86.5,66.8,30.09,South,182,0.0,1.0,52,0.00,BKN,,0.00,WeatherDisplay:10.37,2013-06-22 21:40:00,
2013-06-22 17:50:00,87.3,66.9,30.09,South,182,0.0,1.0,51,0.00,BKN,,0.00,WeatherDisplay:10.37,2013-06-22 21:50:00,
2013-06-22 18:00:00,87.8,66.9,30.08,South,182,0.0,1.0,50,0.00,BKN,,0.00,WeatherDisplay:10.37,2013-06-22 22:00:00,
2013-06-22 18:10:00,87.2,66.3,30.08,South,182,1.0,4.0,50,0.00,SCT,,0.00,WeatherDisplay:10.37,2013-06-22 22:10:00,
2013-06-22 18:20:00,85.9,67.4,30.08,SW,228,2.0,6.0,54,0.00,SCT,,0.00,WeatherDisplay:10.37,2013-06-22 22:20:00,
2013-06-22 18:30:00,84.8,66.3,30.07,WSW,249,2.0,7.0,54,0.00,SCT,,0.00,WeatherDisplay:10.37,2013-06-22 22:30:00,
2013-06-22 18:40:00,84.7,66.7,30.07,WSW,247,2.0,5.0,55,0.00,CLR,,0.00,WeatherDisplay:10.37,2013-06-22 22:40:00,
2013-06-22 18:50:00,84.0,68.6,30.07,WSW,249,2.0,6.0,60,0.00,CLR,,0.00,WeatherDisplay:10.37,2013-06-22 22:50:00,
2013-06-22 19:00:00,83.3,68.0,30.07,WSW,252,0.0,3.0,60,0.00,CLR,,0.00,WeatherDisplay:10.37,2013-06-22 23:00:00,
2013-06-22 19:10:00,83.3,68.9,30.07,WSW,256,0.0,2.0,62,0.00,CLR,,0.00,WeatherDisplay:10.37,2013-06-22 23:10:00,
2013-06-22 19:20:00,82.9,69.0,30.07,WSW,258,0.0,1.0,63,0.00,CLR,,0.00,WeatherDisplay:10.37,2013-06-22 23:20:00,
2013-06-22 19:30:00,82.5,68.2,30.07,WSW,258,2.0,4.0,62,0.00,CLR,,0.00,WeatherDisplay:10.37,2013-06-22 23:30:00,
2013-06-22 19:40:00,81.6,68.2,30.06,WSW,258,0.0,1.0,64,0.00,CLR,,0.00,WeatherDisplay:10.37,2013-06-22 23:40:00,
2013-06-22 19:50:00,80.5,68.5,30.06,WSW,258,0.0,0.0,67,0.00,CLR,,0.00,WeatherDisplay:10.37,2013-06-22 23:50:00,
2013-06-22 20:00:00,79.1,68.5,30.07,WSW,258,0.0,1.0,70,0.00,CLR,,0.00,WeatherDisplay:10.37,2013-06-23 00:00:00,
2013-06-22 20:10:00,77.8,68.0,30.07,WSW,258,0.0,1.0,72,0.00,CLR,,0.00,WeatherDisplay:10.37,2013-06-23 00:10:00,
2013-06-22 20:20:00,77.0,67.7,30.07,NE,53,0.0,0.0,73,0.00,CLR,,0.00,WeatherDisplay:10.37,2013-06-23 00:20:00,
2013-06-22 20:30:00,76.5,67.6,30.07,ENE,65,0.0,1.0,74,0.00,CLR,,0.00,WeatherDisplay:10.37,2013-06-23 00:30:00,
2013-06-22 20:40:00,76.1,67.6,30.08,ENE,65,0.0,0.0,75,0.00,CLR,,0.00,WeatherDisplay:10.37,2013-06-23 00:40:00,
2013-06-22 20:50:00,75.5,67.0,30.08,ENE,65,0.0,0.0,75,0.00,CLR,,0.00,WeatherDisplay:10.37,2013-06-23 00:50:00,
2013-06-22 21:00:00,74.9,66.9,30.08,ENE,65,0.0,0.0,76,0.00,CLR,,0.00,WeatherDisplay:10.37,2013-06-23 01:00:00,
2013-06-22 21:10:00,74.2,66.5,30.08,ENE,65,0.0,0.0,77,0.00,CLR,,0.00,WeatherDisplay:10.37,2013-06-23 01:10:00,
2013-06-22 21:20:00,73.5,66.6,30.09,ENE,65,0.0,0.0,79,0.00,CLR,,0.00,WeatherDisplay:10.37,2013-06-23 01:20:00,
2013-06-22 21:30:00,73.0,66.5,30.09,ENE,65,0.0,0.0,80,0.00,CLR,,0.00,WeatherDisplay:10.37,2013-06-23 01:30:00,
2013-06-22 21:40:00,72.4,65.9,30.10,ENE,65,0.0,0.0,80,0.00,CLR,,0.00,WeatherDisplay:10.37,2013-06-23 01:40:00,
2013-06-22 21:50:00,71.7,65.6,30.10,ENE,65,0.0,0.0,81,0.00,CLR,,0.00,WeatherDisplay:10.37,2013-06-23 01:50:00,
2013-06-22 22:00:00,71.3,65.5,30.10,ENE,65,0.0,0.0,82,0.00,CLR,,0.00,WeatherDisplay:10.37,2013-06-23 02:00:00,
2013-06-22 22:10:00,70.9,65.1,30.12,ENE,65,0.0,0.0,82,0.00,CLR,,0.00,WeatherDisplay:10.37,2013-06-23 02:10:00,
2013-06-22 22:20:00,70.4,65.0,30.12,ENE,65,0.0,0.0,83,0.00,CLR,,0.00,WeatherDisplay:10.37,2013-06-23 02:20:00,
2013-06-22 22:30:00,70.1,65.4,30.12,ENE,65,0.0,0.0,85,0.00,CLR,,0.00,WeatherDisplay:10.37,2013-06-23 02:30:00,
2013-06-22 22:40:00,69.8,65.4,30.12,ENE,65,0.0,0.0,86,0.00,CLR,,0.00,WeatherDisplay:10.37,2013-06-23 02:40:00,
2013-06-22 22:50:00,69.4,65.4,30.12,ENE,65,0.0,0.0,87,0.00,CLR,,0.00,WeatherDisplay:10.37,2013-06-23 02:50:00,
2013-06-22 23:00:00,69.1,65.1,30.12,ENE,65,0.0,0.0,87,0.00,CLR,,0.00,WeatherDisplay:10.37,2013-06-23 03:00:00,
2013-06-22 23:10:00,68.8,64.7,30.13,ENE,65,0.0,0.0,87,0.00,CLR,,0.00,WeatherDisplay:10.37,2013-06-23 03:10:00,
2013-06-22 23:20:00,68.5,64.8,30.13,ENE,65,0.0,0.0,88,0.00,CLR,,0.00,WeatherDisplay:10.37,2013-06-23 03:20:00,
2013-06-22 23:30:00,68.2,64.8,30.13,ENE,65,0.0,0.0,89,0.00,CLR,,0.00,WeatherDisplay:10.37,2013-06-23 03:30:00,
2013-06-22 23:40:00,68.0,64.6,30.13,ENE,65,0.0,0.0,89,0.00,CLR,,0.00,WeatherDisplay:10.37,2013-06-23 03:40:00,
2013-06-22 23:50:00,68.0,64.6,30.13,ENE,65,0.0,1.0,89,0.00,CLR,,0.00,WeatherDisplay:10.37,2013-06-23 03:50:00,